createdAt,value
2023-03-18T00:01:39.851Z,2.55
2023-03-18T00:04:24.973Z,2.67
2023-03-18T00:07:11.156Z,2.70
2023-03-18T00:09:56.654Z,2.60
2023-03-18T00:12:42.055Z,2.67
2023-03-18T00:15:27.582Z,2.83
2023-03-18T00:18:13.302Z,3.28
2023-03-18T00:21:00.793Z,2.60
2023-03-18T00:26:31.739Z,2.83
2023-03-18T00:29:17.112Z,2.40
2023-03-18T00:32:02.313Z,2.50
2023-03-18T00:34:47.301Z,2.70
2023-03-18T00:37:34.286Z,3.00
2023-03-18T00:40:20.435Z,2.40
2023-03-18T00:43:09.634Z,2.65
2023-03-18T00:45:56.846Z,2.72
2023-03-18T00:48:42.834Z,2.65
2023-03-18T00:51:31.344Z,3.10
2023-03-18T00:54:18.903Z,2.92
2023-03-18T00:57:04.027Z,2.90
2023-03-18T00:59:48.853Z,3.20
2023-03-18T01:02:34.346Z,2.92
2023-03-18T01:05:19.779Z,3.10
2023-03-18T01:08:05.983Z,2.17
2023-03-18T01:10:51.138Z,2.92
2023-03-18T01:13:37.970Z,2.70
2023-03-18T01:19:10.593Z,2.70
2023-03-18T01:21:56.304Z,2.60
2023-03-18T01:24:42.056Z,2.50
2023-03-18T01:27:26.964Z,2.70
2023-03-18T01:30:13.664Z,2.95
2023-03-18T01:32:58.920Z,2.50
2023-03-18T01:35:44.038Z,2.67
2023-03-18T01:38:31.726Z,2.95
2023-03-18T01:41:17.353Z,2.80
2023-03-18T01:44:04.203Z,3.15
2023-03-18T01:46:50.622Z,2.78
2023-03-18T01:49:49.216Z,2.80
2023-03-18T01:52:35.356Z,3.00
2023-03-18T01:55:24.566Z,2.55
2023-03-18T01:58:17.260Z,2.63
2023-03-18T02:01:07.219Z,2.55
2023-03-18T02:03:52.978Z,2.42
2023-03-18T02:06:39.202Z,2.30
2023-03-18T02:09:24.321Z,2.40
2023-03-18T02:12:11.628Z,2.55
2023-03-18T02:14:58.546Z,2.53
2023-03-18T02:18:02.938Z,2.60
2023-03-18T02:21:00.553Z,2.58
2023-03-18T02:24:11.369Z,2.38
2023-03-18T02:27:01.703Z,3.03
2023-03-18T02:29:49.193Z,2.80
2023-03-18T02:35:20.651Z,2.17
2023-03-18T02:38:05.835Z,2.30
2023-03-18T02:40:50.634Z,2.63
2023-03-18T02:43:36.219Z,2.72
2023-03-18T02:46:53.420Z,2.10
2023-03-18T02:49:38.497Z,2.33
2023-03-18T02:52:23.533Z,2.83
2023-03-18T02:55:09.297Z,2.00
2023-03-18T02:57:54.712Z,2.47
2023-03-18T03:00:39.733Z,2.17
2023-03-18T03:03:26.529Z,2.25
2023-03-18T03:06:11.788Z,2.10
2023-03-18T03:08:57.639Z,2.15
2023-03-18T03:11:45.744Z,2.55
2023-03-18T03:14:31.311Z,2.30
2023-03-18T03:17:16.443Z,1.95
2023-03-18T03:20:03.686Z,2.53
2023-03-18T03:22:48.946Z,1.98
2023-03-18T03:25:35.327Z,2.03
2023-03-18T03:28:22.462Z,2.30
2023-03-18T03:31:07.332Z,1.88
2023-03-18T03:33:52.905Z,2.55
2023-03-18T03:36:38.020Z,2.47
2023-03-18T03:39:24.052Z,2.53
2023-03-18T03:42:09.236Z,2.50
2023-03-18T03:44:54.009Z,2.25
2023-03-18T03:47:39.153Z,2.13
2023-03-18T03:50:24.511Z,2.03
2023-03-18T03:53:10.327Z,2.25
2023-03-18T03:55:58.997Z,2.47
2023-03-18T03:58:44.108Z,2.42
2023-03-18T04:01:29.432Z,2.20
2023-03-18T04:04:14.381Z,2.17
2023-03-18T04:06:59.178Z,2.10
2023-03-18T04:09:44.222Z,2.38
2023-03-18T04:12:29.695Z,2.20
2023-03-18T04:15:17.158Z,2.33
2023-03-18T04:18:06.656Z,2.20
2023-03-18T04:20:52.285Z,2.70
2023-03-18T04:23:37.444Z,2.30
2023-03-18T04:26:23.146Z,2.60
2023-03-18T04:29:08.552Z,2.42
2023-03-18T04:31:53.898Z,2.45
2023-03-18T04:34:38.914Z,2.33
2023-03-18T04:37:24.220Z,2.15
2023-03-18T04:40:10.641Z,2.22
2023-03-18T04:42:56.052Z,2.50
2023-03-18T04:45:41.800Z,2.47
2023-03-18T04:48:28.089Z,2.92
2023-03-18T04:51:13.473Z,2.40
2023-03-18T04:53:58.318Z,2.60
2023-03-18T04:56:43.686Z,2.40
2023-03-18T04:59:28.624Z,2.90
2023-03-18T05:02:13.861Z,2.17
2023-03-18T05:05:00.634Z,2.42
2023-03-18T05:07:46.142Z,2.53
2023-03-18T05:10:31.133Z,2.30
2023-03-18T05:13:17.655Z,2.80
2023-03-18T05:16:02.881Z,2.72
2023-03-18T05:18:48.718Z,2.50
2023-03-18T05:21:33.458Z,2.85
2023-03-18T05:24:19.338Z,2.58
2023-03-18T05:27:04.517Z,2.80
2023-03-18T05:29:50.753Z,2.45
2023-03-18T05:32:36.583Z,3.05
2023-03-18T05:35:22.322Z,2.70
2023-03-18T05:38:07.444Z,3.10
2023-03-18T05:40:52.419Z,2.92
2023-03-18T05:43:37.683Z,3.20
2023-03-18T05:46:23.057Z,2.72
2023-03-18T05:49:08.730Z,3.03
2023-03-18T05:51:55.063Z,3.20
2023-03-18T05:54:40.770Z,3.03
2023-03-18T05:57:26.249Z,3.00
2023-03-18T06:00:13.659Z,3.17
2023-03-18T06:02:59.932Z,2.47
2023-03-18T06:05:44.795Z,3.10
2023-03-18T06:08:29.793Z,2.63
2023-03-18T06:11:15.704Z,2.80
2023-03-18T06:14:00.632Z,2.78
2023-03-18T06:16:46.520Z,2.63
2023-03-18T06:19:32.196Z,2.72
2023-03-18T06:22:17.490Z,3.00
2023-03-18T06:25:05.022Z,2.90
2023-03-18T06:27:50.592Z,3.10
2023-03-18T06:30:36.229Z,3.33
2023-03-18T06:33:21.161Z,2.50
2023-03-18T06:36:07.131Z,2.90
2023-03-18T06:38:53.240Z,3.17
2023-03-18T06:41:38.699Z,2.97
2023-03-18T06:44:24.522Z,2.70
2023-03-18T06:47:10.239Z,3.08
2023-03-18T06:49:56.599Z,2.90
2023-03-18T06:52:43.431Z,2.90
2023-03-18T06:55:28.432Z,3.40
2023-03-18T06:58:15.914Z,2.97
2023-03-18T07:01:01.375Z,2.97
2023-03-18T07:03:46.364Z,2.83
2023-03-18T07:06:31.630Z,2.75
2023-03-18T07:09:17.121Z,2.78
2023-03-18T07:12:02.968Z,2.70
2023-03-18T07:14:48.463Z,3.08
2023-03-18T07:17:33.777Z,3.10
2023-03-18T07:20:19.287Z,3.35
2023-03-18T07:23:05.555Z,2.80
2023-03-18T07:25:51.417Z,2.53
2023-03-18T07:28:36.861Z,2.72
2023-03-18T07:31:21.727Z,2.85
2023-03-18T07:34:06.500Z,2.90
2023-03-18T07:36:51.841Z,2.63
2023-03-18T07:39:38.190Z,3.67
2023-03-18T07:42:23.028Z,2.80
2023-03-18T07:45:09.319Z,3.03
2023-03-18T07:47:54.218Z,2.88
2023-03-18T07:50:39.111Z,2.85
2023-03-18T07:53:24.761Z,2.78
2023-03-18T07:56:09.967Z,2.67
2023-03-18T07:58:54.965Z,2.78
2023-03-18T08:01:39.841Z,3.33
2023-03-18T08:04:25.152Z,2.60
2023-03-18T08:07:10.594Z,2.80
2023-03-18T08:09:55.714Z,2.85
2023-03-18T08:12:52.097Z,3.00
2023-03-18T08:15:38.114Z,3.00
2023-03-18T08:18:24.130Z,2.60
2023-03-18T08:21:09.693Z,2.80
2023-03-18T08:23:55.107Z,3.00
2023-03-18T08:26:40.832Z,2.90
2023-03-18T08:29:26.970Z,3.13
2023-03-18T08:32:13.435Z,2.70
2023-03-18T08:34:58.115Z,2.75
2023-03-18T08:37:43.131Z,3.58
2023-03-18T08:40:28.157Z,2.90
2023-03-18T08:43:13.483Z,2.72
2023-03-18T08:45:58.574Z,2.85
2023-03-18T08:48:44.406Z,3.15
2023-03-18T08:51:29.714Z,2.65
2023-03-18T08:54:14.714Z,2.83
2023-03-18T08:57:00.525Z,3.25
2023-03-18T08:59:46.069Z,2.92
2023-03-18T09:02:31.267Z,2.80
2023-03-18T09:05:16.313Z,2.70
2023-03-18T09:08:03.964Z,3.20
2023-03-18T09:10:53.413Z,2.45
2023-03-18T09:13:39.352Z,2.78
2023-03-18T09:16:24.315Z,3.15
2023-03-18T09:19:09.740Z,2.90
2023-03-18T09:21:54.943Z,2.80
2023-03-18T09:24:40.583Z,2.60
2023-03-18T09:27:26.172Z,2.40
2023-03-18T09:30:12.156Z,2.67
2023-03-18T09:32:57.653Z,2.70
2023-03-18T09:35:43.136Z,3.03
2023-03-18T09:38:28.520Z,2.83
2023-03-18T09:41:38.680Z,3.50
2023-03-18T09:44:31.034Z,3.22
2023-03-18T09:47:54.605Z,3.05
2023-03-18T09:50:43.199Z,3.20
2023-03-18T09:53:43.274Z,2.95
2023-03-18T09:56:32.939Z,3.90
2023-03-18T09:59:21.482Z,3.60
2023-03-18T10:02:20.252Z,3.55
2023-03-18T10:05:30.634Z,3.40
2023-03-18T10:08:44.161Z,4.38
2023-03-18T10:11:37.133Z,4.82
2023-03-18T10:15:02.085Z,3.70
2023-03-18T10:18:09.389Z,4.53
2023-03-18T10:21:27.569Z,4.28
2023-03-18T10:24:54.758Z,4.90
2023-03-18T10:28:04.402Z,3.78
2023-03-18T10:31:01.659Z,4.20
2023-03-18T10:33:56.673Z,3.85
2023-03-18T10:37:12.723Z,4.15
2023-03-18T10:39:59.567Z,4.03
2023-03-18T10:42:45.596Z,4.55
2023-03-18T10:45:33.592Z,4.68
2023-03-18T10:48:30.685Z,4.60
2023-03-18T10:51:34.421Z,4.47
2023-03-18T10:54:38.247Z,4.63
2023-03-18T10:57:23.329Z,4.53
2023-03-18T11:00:36.049Z,4.32
2023-03-18T11:03:34.406Z,4.75
2023-03-18T11:06:25.529Z,4.47
2023-03-18T11:09:13.103Z,4.38
2023-03-18T11:12:05.281Z,3.92
2023-03-18T11:14:51.309Z,4.03
2023-03-18T11:17:39.336Z,3.72
2023-03-18T11:20:34.126Z,3.30
2023-03-18T11:23:56.129Z,3.03
2023-03-18T11:26:55.392Z,3.40
2023-03-18T11:29:46.782Z,3.20
2023-03-18T11:32:34.460Z,2.60
2023-03-18T11:35:27.032Z,2.85
2023-03-18T11:38:28.767Z,2.63
2023-03-18T11:41:16.734Z,3.00
2023-03-18T11:44:06.122Z,3.17
2023-03-18T11:46:58.533Z,2.72
2023-03-18T11:49:45.156Z,2.97
2023-03-18T11:52:49.379Z,3.03
2023-03-18T11:55:50.120Z,2.80
2023-03-18T11:58:57.307Z,2.70
2023-03-18T12:01:57.636Z,2.63
2023-03-18T12:04:57.435Z,2.50
2023-03-18T12:07:52.175Z,1.70
2023-03-18T12:10:56.337Z,2.17
2023-03-18T12:13:52.639Z,2.13
2023-03-18T12:17:14.474Z,2.38
2023-03-18T12:20:11.399Z,2.20
2023-03-18T12:23:40.258Z,1.95
2023-03-18T12:26:51.846Z,2.05
2023-03-18T12:32:42.292Z,2.20
2023-03-18T12:35:35.038Z,2.10
2023-03-18T12:38:29.917Z,2.08
2023-03-18T12:41:30.617Z,2.08
2023-03-18T12:44:30.666Z,2.10
2023-03-18T12:47:22.390Z,2.10
2023-03-18T12:50:25.376Z,1.80
2023-03-18T12:53:23.708Z,1.70
2023-03-18T12:56:23.556Z,1.80
2023-03-18T12:59:22.369Z,1.70
2023-03-18T13:02:24.871Z,2.10
2023-03-18T13:05:42.793Z,1.80
2023-03-18T13:08:30.957Z,1.98
2023-03-18T13:11:34.364Z,2.00
2023-03-18T13:14:46.043Z,2.10
2023-03-18T13:17:40.098Z,2.10
2023-03-18T13:20:30.975Z,2.08
2023-03-18T13:23:32.131Z,2.03
2023-03-18T13:26:48.078Z,2.00
2023-03-18T13:29:52.508Z,2.20
2023-03-18T13:33:13.808Z,1.90
2023-03-18T13:36:31.830Z,2.08
2023-03-18T13:39:32.602Z,1.90
2023-03-18T13:42:25.847Z,2.03
2023-03-18T13:45:28.578Z,2.03
2023-03-18T13:48:18.156Z,1.90
2023-03-18T13:51:43.697Z,1.95
2023-03-18T13:54:34.756Z,2.00
2023-03-18T13:57:31.332Z,1.77
2023-03-18T14:00:33.410Z,2.05
2023-03-18T14:03:40.555Z,2.10
2023-03-18T14:06:47.773Z,1.80
2023-03-18T14:09:47.180Z,2.00
2023-03-18T14:12:35.426Z,1.88
2023-03-18T14:15:29.941Z,1.92
2023-03-18T14:18:28.559Z,2.30
2023-03-18T14:21:34.326Z,1.90
2023-03-18T14:24:24.381Z,2.20
2023-03-18T14:27:17.482Z,2.10
2023-03-18T14:30:34.715Z,2.05
2023-03-18T14:33:22.649Z,1.92
2023-03-18T14:36:10.489Z,2.10
2023-03-18T14:39:07.369Z,2.15
2023-03-18T14:41:57.288Z,1.92
2023-03-18T14:44:49.842Z,1.80
2023-03-18T14:47:45.395Z,1.60
2023-03-18T14:50:42.972Z,1.80
2023-03-18T14:53:52.969Z,2.00
2023-03-18T14:56:42.395Z,1.92
2023-03-18T14:59:27.777Z,2.00
2023-03-18T15:02:23.732Z,1.90
2023-03-18T15:05:11.466Z,2.10
2023-03-18T15:07:56.569Z,2.30
2023-03-18T15:10:47.322Z,2.00
2023-03-18T15:13:33.521Z,2.15
2023-03-18T15:16:20.589Z,2.28
2023-03-18T15:21:51.988Z,2.30
2023-03-18T15:24:37.600Z,2.03
2023-03-18T15:27:32.856Z,2.00
2023-03-18T15:30:30.042Z,2.35
2023-03-18T15:33:19.812Z,2.13
2023-03-18T15:36:15.592Z,2.95
2023-03-18T15:39:00.941Z,2.50
2023-03-18T15:41:45.900Z,8.07
2023-03-18T15:44:42.482Z,2.05
2023-03-18T15:47:30.719Z,2.25
2023-03-18T15:50:30.028Z,2.45
2023-03-18T15:53:33.613Z,2.15
2023-03-18T15:56:29.943Z,2.40
2023-03-18T15:59:19.487Z,2.40
2023-03-18T16:02:12.894Z,2.40
2023-03-18T16:05:09.094Z,2.40
2023-03-18T16:07:57.350Z,2.35
2023-03-18T16:10:42.939Z,2.22
2023-03-18T16:13:32.069Z,3.72
2023-03-18T16:16:24.938Z,2.83
2023-03-18T16:19:24.702Z,2.47
2023-03-18T16:22:10.074Z,1.95
2023-03-18T16:24:55.284Z,3.40
2023-03-18T16:27:43.692Z,2.88
2023-03-18T16:30:31.230Z,2.45
2023-03-18T16:33:18.004Z,2.50
2023-03-18T16:36:05.921Z,2.30
2023-03-18T16:38:51.552Z,2.70
2023-03-18T16:41:37.501Z,5.30
2023-03-18T16:44:27.066Z,4.70
2023-03-18T16:47:25.454Z,5.07
2023-03-18T16:50:23.066Z,5.07
2023-03-18T16:53:22.371Z,5.53
2023-03-18T16:56:17.202Z,4.68
2023-03-18T16:59:03.137Z,4.85
2023-03-18T17:01:48.609Z,4.57
2023-03-18T17:04:35.148Z,4.25
2023-03-18T17:07:22.254Z,3.63
2023-03-18T17:10:09.410Z,3.90
2023-03-18T17:12:57.323Z,3.25
2023-03-18T17:15:42.901Z,3.10
2023-03-18T17:18:29.203Z,3.67
2023-03-18T17:21:14.168Z,3.75
2023-03-18T17:24:00.306Z,3.08
2023-03-18T17:26:48.483Z,2.80
2023-03-18T17:29:33.773Z,2.67
2023-03-18T17:32:20.425Z,2.78
2023-03-18T17:35:13.063Z,2.35
2023-03-18T17:37:58.422Z,2.47
2023-03-18T17:40:44.294Z,2.47
2023-03-18T17:43:36.879Z,2.80
2023-03-18T17:46:23.091Z,2.40
2023-03-18T17:49:11.796Z,2.58
2023-03-18T17:51:57.923Z,2.22
2023-03-18T17:54:42.926Z,2.30
2023-03-18T17:57:28.310Z,2.72
2023-03-18T18:00:22.462Z,2.58
2023-03-18T18:03:28.493Z,3.20
2023-03-18T18:06:20.070Z,3.42
2023-03-18T18:09:06.492Z,5.40
2023-03-18T18:11:57.632Z,24.25
2023-03-18T18:14:42.866Z,7.32
2023-03-18T18:17:29.468Z,4.38
2023-03-18T18:20:21.162Z,5.57
2023-03-18T18:23:09.999Z,27.15
2023-03-18T18:25:59.182Z,9.60
2023-03-18T18:28:48.045Z,5.57
2023-03-18T18:31:35.533Z,25.85
2023-03-18T18:34:21.885Z,32.97
2023-03-18T18:37:08.082Z,14.05
2023-03-18T18:39:54.738Z,12.27
2023-03-18T18:42:43.574Z,11.57
2023-03-18T18:45:29.179Z,10.27
2023-03-18T18:48:17.149Z,11.30
2023-03-18T18:51:04.264Z,9.88
2023-03-18T18:53:54.651Z,5.90
2023-03-18T18:56:42.352Z,4.78
2023-03-18T18:59:36.918Z,5.20
2023-03-18T19:02:36.552Z,3.22
2023-03-18T19:05:22.160Z,3.20
2023-03-18T19:08:30.047Z,4.30
2023-03-18T19:11:19.848Z,5.45
2023-03-18T19:14:24.189Z,5.15
2023-03-18T19:17:13.870Z,3.20
2023-03-18T19:19:59.297Z,3.92
2023-03-18T19:22:44.561Z,4.60
2023-03-18T19:25:30.178Z,2.90
2023-03-18T19:28:21.822Z,3.47
2023-03-18T19:31:11.596Z,2.65
2023-03-18T19:34:01.601Z,2.58
2023-03-18T19:36:49.443Z,2.30
2023-03-18T19:39:34.394Z,2.22
2023-03-18T19:42:21.774Z,2.72
2023-03-18T19:45:18.200Z,3.30
2023-03-18T19:48:03.704Z,3.50
2023-03-18T19:50:50.079Z,3.80
2023-03-18T19:53:35.851Z,3.70
2023-03-18T19:56:27.492Z,2.45
2023-03-18T19:59:22.802Z,2.70
2023-03-18T20:02:22.652Z,3.70
2023-03-18T20:05:19.585Z,3.10
2023-03-18T20:08:05.139Z,2.90
2023-03-18T20:10:52.318Z,2.97
2023-03-18T20:13:40.774Z,2.90
2023-03-18T20:16:28.436Z,2.83
2023-03-18T20:19:14.028Z,3.00
2023-03-18T20:21:59.133Z,3.35
2023-03-18T20:24:44.254Z,3.38
2023-03-18T20:27:31.468Z,3.25
2023-03-18T20:30:24.378Z,3.67
2023-03-18T20:33:10.797Z,3.58
2023-03-18T20:35:56.116Z,3.35
2023-03-18T20:38:46.415Z,3.60
2023-03-18T20:41:37.594Z,3.83
2023-03-18T20:44:22.436Z,3.92
2023-03-18T20:47:07.942Z,3.88
2023-03-18T20:49:56.642Z,4.10
2023-03-18T20:52:44.132Z,4.15
2023-03-18T20:58:21.484Z,4.45
2023-03-18T21:01:12.374Z,4.28
2023-03-18T21:04:01.776Z,5.30
2023-03-18T21:06:47.864Z,5.55
2023-03-18T21:09:33.050Z,4.68
2023-03-18T21:12:19.929Z,4.80
2023-03-18T21:15:05.324Z,5.45
2023-03-18T21:17:52.084Z,4.72
2023-03-18T21:20:40.115Z,5.15
2023-03-18T21:23:32.105Z,5.60
2023-03-18T21:26:18.580Z,4.60
2023-03-18T21:29:04.077Z,4.88
2023-03-18T21:31:49.278Z,4.80
2023-03-18T21:34:34.456Z,5.28
2023-03-18T21:37:22.208Z,4.70
2023-03-18T21:40:09.149Z,4.45
2023-03-18T21:42:55.235Z,4.38
2023-03-18T21:45:41.969Z,4.80
2023-03-18T21:48:27.934Z,4.00
2023-03-18T21:51:38.078Z,4.82
2023-03-18T21:54:25.715Z,5.90
2023-03-18T21:57:18.909Z,5.32
2023-03-18T22:00:05.057Z,6.90
2023-03-18T22:02:50.691Z,9.65
2023-03-18T22:05:36.059Z,9.27
2023-03-18T22:08:22.265Z,7.13
2023-03-18T22:11:14.819Z,6.70
2023-03-18T22:13:59.656Z,6.78
2023-03-18T22:16:45.092Z,6.15
2023-03-18T22:19:32.477Z,10.43
2023-03-18T22:22:19.594Z,10.07
2023-03-18T22:25:05.916Z,9.35
2023-03-18T22:27:51.125Z,7.55
2023-03-18T22:30:35.912Z,6.72
2023-03-18T22:33:26.077Z,5.93
2023-03-18T22:36:13.883Z,5.95
2023-03-18T22:38:58.709Z,5.88
2023-03-18T22:41:43.616Z,6.28
2023-03-18T22:44:28.379Z,5.53
2023-03-18T22:47:22.132Z,5.40
2023-03-18T22:50:07.482Z,5.30
2023-03-18T22:53:02.610Z,6.00
2023-03-18T22:55:49.021Z,5.47
2023-03-18T22:58:34.605Z,5.50
2023-03-18T23:01:23.071Z,6.20
2023-03-18T23:04:12.043Z,7.18
2023-03-18T23:06:57.589Z,7.82
2023-03-18T23:09:56.210Z,6.60
2023-03-18T23:12:42.071Z,8.00
2023-03-18T23:15:27.761Z,7.40
2023-03-18T23:18:15.871Z,8.90
2023-03-18T23:21:01.605Z,9.30
2023-03-18T23:23:46.697Z,9.07
2023-03-18T23:26:31.810Z,8.80
2023-03-18T23:29:17.109Z,7.88
2023-03-18T23:32:02.354Z,9.15
2023-03-18T23:34:47.442Z,8.57
2023-03-18T23:37:32.269Z,8.73
2023-03-18T23:40:17.508Z,8.63
2023-03-18T23:43:03.606Z,8.70
2023-03-18T23:45:48.993Z,8.15
2023-03-18T23:48:34.282Z,8.43
2023-03-18T23:51:19.072Z,8.07
2023-03-18T23:54:06.736Z,6.80
2023-03-18T23:56:51.860Z,7.03
2023-03-18T23:59:37.835Z,7.18
